aviador You're here:

KPUC Decoded Metar

PRICE in UT, USA
Report Time2018-05-27 00:53:00
UTC Time2018-05-27 01:14:33
Flight Rules vfr VFR
Wind220° at 18 Gusting to 29 kt
W.Decomp.*RWY 18: 16.2 kt HW 7.9 kt RCW
RWY 25: 12.9 kt HW 12.5 kt LCW
RWY 14: 7.3 kt HW 16.4 kt RCW
W.Rank220° ranks 34
Current wind is above 220° avg. (6.6)
Visibility9999 m
Phenomena:N/A
Clouds:N/A
Expected CloudBase > 16,000 ft AGL from Temp-Dew spread
CeilingNone
Temp26°C (ISA +25)
Dew Point-14°C (6% RH)
AAT16.2°C
QNH1008 hPa
Density Alt9,833 ft
Elevation6,860 ft
Report Wrong Elevation
Raw Report
KPUC 270053Z AUTO 22018G29KT 10SM CLR 26/M14 A2977 RMK AO2 PK WND
21029/0008 SLP004 T02611139=

Extra information for KPUC:More info

Metar Taf Metar & Taf Last 4 Metars F.Rules Stats Wind Profile Meteogram Temp Stats Airport Information Weather charts Add Link Nearby VenuesMetar ALERT Operation Metar Decoded Social comments

AIRNAV info for KPUC